Latest Weather Observations for Newdegate

IDW60801

Issued at 8:35 pm WST Thursday 28 August 2014 (issued every 30 minutes, with the page automatically refreshed every 10 minutes)

About weather observations | Map of weather stations | Latest weather observations for WA | Other Formats
Station Details ID: 010692 Name: NEWDEGATE RESEARCH STATION Lat: -33.11 Lon: 118.84 Height: 320.0 m
Data from the previous 72 hours. | See also: Recent months at Newdegate
Date/Time
WST
Temp
°C
App
Temp
°C
Dew
Point
Rel
Hum
%
Delta-T
°C
Wind Press
QNH
hPa
Press
MSL
hPa
Rain
since 9 am
mm
Dir
 
Spd
km/h
Gust
km/h
Spd
kts
Gust
kts
28/08:30pm 12.1 9.8 5.9 66 3.0 N 7 9 4 5 1015.2 1015.4 0.0
28/08:00pm 13.4 11.5 6.5 63 3.4 NNW 6 7 3 4 1015.1 1015.3 0.0
28/07:30pm 12.6 10.6 6.4 66 3.0 NNW 6 7 3 4 1015.0 1015.2 0.0
28/07:00pm 12.9 10.9 7.1 68 2.9 NNW 7 11 4 6 1014.9 1015.1 0.0
28/06:30pm 14.6 12.4 6.4 58 4.0 NNW 7 9 4 5 1014.9 1015.1 0.0
28/06:00pm 15.1 13.1 6.9 58 4.1 NNW 7 9 4 5 1014.8 1015.0 0.0
28/05:30pm 17.0 14.7 5.6 47 5.6 NW 7 9 4 5 1014.6 1014.8 0.0
28/05:00pm 18.5 15.4 5.4 42 6.5 NW 11 17 6 9 1014.4 1014.6 0.0
28/04:30pm 19.3 15.1 5.7 41 6.8 NNW 17 24 9 13 1014.4 1014.6 0.0
28/04:00pm 20.0 15.0 4.5 36 7.6 NNW 20 28 11 15 1014.3 1014.5 0.0
28/03:30pm 20.7 14.0 3.9 33 8.2 NNW 28 39 15 21 1014.2 1014.4 0.0
28/03:00pm 21.8 16.5 6.9 38 7.7 NNW 24 33 13 18 1014.4 1014.6 0.0
28/02:30pm 21.4 15.5 7.3 40 7.4 NNW 28 37 15 20 1014.5 1014.7 0.0
28/02:00pm 20.2 16.4 9.2 49 5.9 NNW 19 28 10 15 1014.7 1014.9 0.0
28/01:30pm 19.0 15.4 9.8 55 5.0 NNW 19 24 10 13 1014.8 1015.0 0.0
28/01:00pm 18.7 16.3 11.3 62 4.1 NNW 15 19 8 10 1015.2 1015.4 0.0
28/12:30pm 18.2 16.1 11.3 64 3.8 NNW 13 19 7 10 1015.7 1015.8 0.0
28/12:00pm 17.8 16.0 10.9 64 3.8 NNW 11 17 6 9 1015.8 1015.9 0.0
28/11:30am 17.4 14.7 10.3 63 3.8 NNW 15 19 8 10 1016.1 1016.3 0.0
28/11:00am 17.3 14.8 10.9 66 3.5 N 15 20 8 11 1016.2 1016.4 0.0
28/10:30am 17.5 14.5 11.8 69 3.2 NNW 19 24 10 13 1016.6 1016.8 0.0
28/10:00am 16.3 13.6 11.7 74 2.5 N 17 24 9 13 1016.7 1016.9 0.0
28/09:30am 15.4 12.4 11.8 79 2.0 N 19 24 10 13 1016.9 1017.1 0.0
28/09:00am 13.9 11.6 11.8 87 1.1 NNW 15 22 8 12 1017.0 1017.2 0.2
28/08:30am 12.1 11.2 10.7 91 0.7 N 6 11 3 6 1017.1 1017.3 0.2
28/08:00am 10.3 10.1 9.1 92 0.6 CALM 0 4 0 2 1017.2 1017.4 0.2
28/07:30am 9.5 9.1 8.3 92 0.6 CALM 0 2 0 1 1017.0 1017.2 0.2
28/07:00am 8.2 6.3 6.8 91 0.7 ENE 6 9 3 5 1016.8 1017.0 0.2
28/06:30am 7.0 4.9 5.6 91 0.6 E 6 7 3 4 1016.9 1017.1 0.2
28/06:00am 7.2 6.2 5.8 91 0.6 CALM 0 0 0 0 1016.8 1017.0 0.2
28/05:30am 6.2 5.0 4.8 91 0.6 CALM 0 0 0 0 1016.7 1016.9 0.2
28/05:00am 6.7 5.3 5.3 91 0.6 NW 2 4 1 2 1016.9 1017.1 0.2
28/04:30am 7.0 6.0 5.6 91 0.6 CALM 0 0 0 0 1017.0 1017.2 0.2
28/04:00am 5.6 3.9 4.1 90 0.6 N 2 6 1 3 1016.9 1017.1 0.2
28/03:30am 8.0 6.5 6.6 91 0.7 N 4 4 2 2 1017.4 1017.6 0.2
28/03:00am 6.0 4.4 4.3 89 0.7 N 2 4 1 2 1017.4 1017.6 0.2
28/02:30am 7.2 6.2 5.7 90 0.7 CALM 0 0 0 0 1017.6 1017.8 0.2
28/02:00am 7.9 7.1 6.4 90 0.7 CALM 0 0 0 0 1017.8 1018.0 0.2
28/01:30am 7.2 5.8 5.5 89 0.8 WSW 2 4 1 2 1017.7 1017.9 0.2
28/01:00am 6.5 4.9 4.3 86 1.0 NNW 2 6 1 3 1018.3 1018.5 0.2
28/12:30am 8.0 6.7 5.8 86 1.0 NNW 2 4 1 2 1018.2 1018.4 0.2
28/12:00am 9.6 7.8 7.0 84 1.2 W 6 7 3 4 1018.4 1018.6 0.2
 
Date/Time
WST
Temp
°C
App
Temp
°C
Dew
Point
Rel
Hum
%
Delta-T
°C
Wind Press
QNH
hPa
Press
MSL
hPa
Rain
since 9 am
mm
Dir
 
Spd
km/h
Gust
km/h
Spd
kts
Gust
kts
27/11:30pm 11.6 9.5 9.7 88 1.0 WSW 11 15 6 8 1018.7 1019.0 0.2
27/11:00pm 11.1 9.7 9.5 90 0.8 W 7 9 4 5 1018.6 1018.9 0.2
27/10:30pm 9.3 8.4 7.7 90 0.8 N 2 4 1 2 1019.0 1019.2 0.2
27/10:00pm 9.5 8.9 7.6 88 0.9 CALM 0 0 0 0 1019.3 1019.5 0.2
27/09:30pm 10.4 10.1 8.5 88 0.9 CALM 0 0 0 0 1019.6 1019.8 0.2
27/09:00pm 10.0 8.1 7.6 85 1.2 ENE 7 9 4 5 1019.9 1020.1 0.2
27/08:30pm 11.1 10.0 8.3 83 1.4 WSW 4 4 2 2 1020.0 1020.2 0.2
27/08:00pm 13.1 11.9 10.3 83 1.5 WSW 7 11 4 6 1019.9 1020.1 0.2
27/07:30pm 13.7 12.6 10.5 81 1.7 WSW 7 9 4 5 1019.6 1019.8 0.2
27/07:00pm 14.7 12.9 10.9 78 2.0 WSW 11 13 6 7 1019.2 1019.4 0.2
27/06:30pm 15.8 13.7 11.0 73 2.6 WSW 13 17 7 9 1018.5 1018.7 0.2
27/06:00pm 16.0 14.3 9.9 67 3.2 W 9 13 5 7 1017.9 1018.1 0.2
27/05:30pm 19.1 17.6 10.4 57 4.8 W 9 13 5 7 1017.6 1017.8 0.2
27/05:00pm 20.0 18.9 10.7 55 5.1 W 7 11 4 6 1017.2 1017.4 0.2
27/04:30pm 21.1 18.8 10.6 51 5.8 NW 13 20 7 11 1016.9 1017.1 0.2
27/04:00pm 21.6 19.5 11.0 51 5.9 NW 13 19 7 10 1017.1 1017.3 0.2
27/03:30pm 22.1 20.1 11.5 51 6.0 NW 13 20 7 11 1017.2 1017.4 0.2
27/03:00pm 22.5 20.6 11.9 51 6.0 NW 13 20 7 11 1017.4 1017.6 0.2
27/02:30pm 21.9 19.2 11.6 52 5.8 NNW 17 24 9 13 1017.8 1018.0 0.2
27/02:00pm 21.7 19.5 12.0 54 5.5 NNW 15 24 8 13 1018.1 1018.3 0.2
27/01:30pm 21.0 19.4 11.6 55 5.3 N 11 15 6 8 1018.4 1018.6 0.2
27/01:00pm 20.5 18.3 12.0 58 4.8 N 15 24 8 13 1018.8 1019.1 0.2
27/12:30pm 19.8 17.1 11.6 59 4.6 N 17 24 9 13 1019.4 1019.6 0.2
27/12:00pm 18.9 16.1 11.2 61 4.3 N 17 24 9 13 1020.0 1020.2 0.2
27/11:30am 18.5 16.3 12.0 66 3.6 N 15 20 8 11 1020.7 1020.9 0.0
27/11:00am 17.1 15.5 11.4 69 3.1 NNE 11 19 6 10 1021.3 1021.6 0.0
27/10:30am 16.0 13.4 10.7 71 2.9 NNE 15 20 8 11 1021.7 1022.0 0.0
27/10:00am 15.1 12.8 10.5 74 2.5 NNE 13 22 7 12 1022.0 1022.3 0.0
27/09:30am 13.6 10.4 9.8 78 2.0 NNE 17 24 9 13 1022.5 1022.7 0.0
27/09:00am 13.3 9.7 9.9 80 1.8 NE 19 26 10 14 1022.5 1022.7 0.0
27/08:30am 12.3 8.1 9.7 84 1.3 NE 22 28 12 15 1022.8 1023.0 0.0
27/08:00am 11.9 8.6 9.6 86 1.2 NE 17 22 9 12 1022.8 1023.0 0.0
27/07:30am 11.5 8.5 9.2 86 1.2 NE 15 22 8 12 1022.6 1022.8 0.0
27/07:00am 11.2 7.4 8.9 86 1.2 NE 19 26 10 14 1022.5 1022.7 0.0
27/06:30am 11.3 7.8 8.7 84 1.3 NE 17 30 9 16 1022.1 1022.4 0.0
27/06:00am 11.5 7.1 8.9 84 1.3 ENE 22 30 12 16 1021.9 1022.2 0.0
27/05:30am 11.4 8.3 8.8 84 1.3 ENE 15 22 8 12 1021.9 1022.2 0.0
27/05:00am 11.4 7.5 8.8 84 1.3 ENE 19 26 10 14 1022.1 1022.4 0.0
27/04:30am 11.4 8.3 9.0 85 1.2 ENE 15 22 8 12 1022.3 1022.5 0.0
27/04:00am 11.1 8.4 8.8 86 1.2 E 13 17 7 9 1022.3 1022.5 0.0
27/03:30am 11.0 7.2 8.9 87 1.1 ENE 19 32 10 17 1022.6 1022.8 0.0
27/03:00am 10.8 7.4 9.1 89 0.9 ENE 17 22 9 12 1022.6 1022.8 0.0
27/02:30am 10.2 7.1 8.8 91 0.7 E 15 22 8 12 1022.9 1023.1 0.0
27/02:00am 9.5 6.6 8.1 91 0.7 E 13 17 7 9 1023.2 1023.4 0.0
27/01:30am 8.4 6.4 7.0 91 0.7 E 7 9 4 5 1023.4 1023.6 0.0
27/01:00am 7.2 5.0 5.5 89 0.8 E 6 7 3 4 1023.5 1023.7 0.0
27/12:30am 8.6 6.6 6.9 89 0.8 ESE 7 7 4 4 1023.6 1023.8 0.0
27/12:00am 9.6 7.4 7.9 89 0.8 E 9 11 5 6 1023.8 1024.0 0.0
 
Date/Time
WST
Temp
°C
App
Temp
°C
Dew
Point
Rel
Hum
%
Delta-T
°C
Wind Press
QNH
hPa
Press
MSL
hPa
Rain
since 9 am
mm
Dir
 
Spd
km/h
Gust
km/h
Spd
kts
Gust
kts
26/11:30pm 10.4 8.0 8.7 89 0.9 E 11 15 6 8 1024.0 1024.3 0.0
26/11:00pm 11.1 8.5 9.4 89 0.9 E 13 19 7 10 1024.2 1024.5 0.0
26/10:30pm 11.0 8.8 9.3 89 0.9 E 11 15 6 8 1024.3 1024.6 0.0
26/10:00pm 10.9 7.9 9.2 89 0.9 E 15 22 8 12 1024.4 1024.7 0.0
26/09:30pm 10.8 7.8 9.2 90 0.8 ESE 15 22 8 12 1024.5 1024.8 0.0
26/09:00pm 10.5 8.1 8.8 89 0.8 ESE 11 15 6 8 1024.4 1024.7 0.0
26/08:30pm 11.1 8.9 9.2 88 1.0 ESE 11 15 6 8 1024.4 1024.7 0.0
26/08:00pm 11.3 9.5 9.4 88 1.0 ESE 9 13 5 7 1024.4 1024.7 0.0
26/07:30pm 11.5 9.7 9.4 87 1.1 ESE 9 13 5 7 1024.1 1024.4 0.0
26/07:00pm 11.3 9.4 9.2 87 1.1 SSE 9 17 5 9 1023.8 1024.0 0.0
26/06:30pm 10.9 8.9 8.7 86 1.1 S 9 11 5 6 1023.3 1023.5 0.0
26/06:00pm 11.3 9.6 8.2 81 1.5 S 7 7 4 4 1023.2 1023.4 0.0
26/05:30pm 13.4 11.9 9.1 75 2.2 S 7 9 4 5 1023.0 1023.2 0.0
26/05:00pm 14.8 13.1 10.0 73 2.5 S 9 11 5 6 1022.9 1023.1 0.0
26/04:30pm 14.9 13.0 10.5 75 2.4 S 11 15 6 8 1022.8 1023.0 0.0
26/04:00pm 15.6 13.5 11.0 74 2.5 S 13 15 7 8 1022.7 1022.9 0.0
26/03:30pm 15.4 13.3 11.0 75 2.4 S 13 19 7 10 1022.7 1022.9 0.0
26/03:00pm 15.7 13.3 11.5 76 2.3 S 15 20 8 11 1022.4 1022.6 0.0
26/02:30pm 15.8 13.1 11.6 76 2.3 S 17 20 9 11 1022.3 1022.5 0.0
26/02:00pm 16.3 13.7 12.1 76 2.3 S 17 24 9 13 1022.3 1022.5 0.0
26/01:30pm 14.4 11.0 11.4 82 1.6 S 20 28 11 15 1022.5 1022.7 0.0
26/01:00pm 15.2 12.7 11.2 77 2.2 S 15 24 8 13 1022.5 1022.7 0.0
26/12:30pm 16.1 14.4 12.3 78 2.1 S 13 22 7 12 1022.6 1022.8 0.0
26/12:00pm 16.2 13.7 12.2 77 2.2 SSW 17 22 9 12 1022.7 1022.9 0.0
26/11:30am 15.1 11.8 11.7 80 1.9 SSW 20 26 11 14 1022.7 1022.9 0.0
26/11:00am 14.8 11.1 11.6 81 1.7 SW 22 28 12 15 1022.8 1023.0 0.0
26/10:30am 15.5 14.0 13.0 85 1.4 W 13 22 7 12 1022.6 1022.8 0.0
26/10:00am 16.9 14.4 12.2 74 2.6 WNW 17 24 9 13 1022.1 1022.4 0.0
26/09:30am 17.1 14.6 12.4 74 2.6 WNW 17 24 9 13 1021.8 1022.1 0.0
26/09:00am 16.0 13.7 11.8 76 2.3 NW 15 20 8 11 1021.8 1022.1 0.2
26/08:30am 14.4 11.7 10.4 77 2.1 NW 15 22 8 12 1021.8 1022.1 0.2
26/08:00am 14.1 12.2 10.5 79 1.9 NNW 11 17 6 9 1021.5 1021.8 0.2
26/07:30am 12.4 9.4 9.4 82 1.5 NNW 15 22 8 12 1021.2 1021.4 0.2
26/07:00am 11.6 8.9 8.8 83 1.4 NNW 13 17 7 9 1020.7 1020.9 0.2
26/06:30am 11.3 9.0 8.9 85 1.2 NW 11 17 6 9 1020.4 1020.6 0.2
26/06:00am 10.4 8.4 8.5 88 0.9 NW 9 13 5 7 1020.1 1020.3 0.2
26/05:30am 9.2 7.2 7.2 87 1.0 NNW 7 9 4 5 1020.0 1020.2 0.2
26/05:00am 9.4 8.0 7.3 87 1.0 NW 4 7 2 4 1019.6 1019.8 0.2
26/04:30am 9.6 8.3 7.5 87 1.0 NW 4 6 2 3 1019.6 1019.8 0.2
26/04:00am 9.7 7.8 7.6 87 1.0 NNW 7 9 4 5 1019.4 1019.6 0.2
26/03:30am 10.2 7.7 8.0 86 1.1 NNW 11 13 6 7 1019.0 1019.2 0.2
26/03:00am 9.8 7.5 7.4 85 1.2 N 9 11 5 6 1018.8 1019.1 0.2
26/02:30am 11.5 7.4 8.0 79 1.7 N 19 22 10 12 1019.1 1019.3 0.2
26/02:00am 11.6 9.9 9.7 88 1.0 WNW 9 13 5 7 1019.0 1019.2 0.2
26/01:30am 9.1 7.2 6.9 86 1.0 N 6 9 3 5 1019.2 1019.4 0.2
26/01:00am 10.0 8.2 7.8 86 1.1 NNW 7 9 4 5 1019.6 1019.8 0.2
26/12:30am 9.8 7.5 7.6 86 1.1 NNW 9 11 5 6 1019.8 1020.0 0.2
26/12:00am 10.2 8.6 8.0 86 1.1 NW 6 7 3 4 1019.8 1020.0 0.2
 
Date/Time
WST
Temp
°C
App
Temp
°C
Dew
Point
Rel
Hum
%
Delta-T
°C
Wind Press
QNH
hPa
Press
MSL
hPa
Rain
since 9 am
mm
Dir
 
Spd
km/h
Gust
km/h
Spd
kts
Gust
kts
25/11:30pm 10.2 8.6 7.8 85 1.2 NNW 6 7 3 4 1020.1 1020.3 0.2
25/11:00pm 10.3 8.1 7.7 84 1.3 N 9 11 5 6 1020.4 1020.6 0.2
25/10:30pm 10.7 8.9 7.8 82 1.4 NNW 7 9 4 5 1020.5 1020.7 0.2
25/10:00pm 11.4 9.3 8.1 80 1.6 NNW 9 11 5 6 1020.8 1021.0 0.2
25/09:30pm 11.9 9.7 7.8 76 2.0 NNW 9 11 5 6 1021.0 1021.2 0.2
25/09:00pm 14.9 12.5 8.8 67 3.1 NNW 11 15 6 8 1021.1 1021.3 0.2

Other Formats:

Comma delimited format used in spreadsheet applications
http://www.bom.gov.au/fwo/IDW60801/IDW60801.94628.axf

JavaScript Object Notation format (JSON) in row-major order
http://www.bom.gov.au/fwo/IDW60801/IDW60801.94628.json